Flight Track Log - Related Links

Times and Time Zones

All times are in EDT time to prevent confusion due to time zone crossing. See the SWA1729 flight status page for this flight to view local times or setup timezone preferences in your user account.

Time Position Orientation Groundspeed Altitude Reporting Facility
EDT Latitude Longitude Course Direction KTS MPH feet Rate Location/Type
Wed 09:54:49 PM 29.6583 -95.2494 29° Northeast 233 268 1,800  Level Houston Center
Wed 09:55:50 PM 29.6831 -95.3181 293° West 240 276 4,100 3,246 Climbing Houston Center
Wed 09:56:51 PM 29.7064 -95.3969 289° West 258 297 8,400 3,393 Climbing Houston Center
Wed 09:57:52 PM 29.7303 -95.4797 288° West 267 307 11,000 2,656 Climbing Houston Center
Wed 09:58:53 PM 29.7594 -95.5842 288° West 330 380 13,800 2,852 Climbing Houston Center
Wed 09:59:54 PM 29.7897 -95.6881 289° West 343 395 16,800 2,607 Climbing Houston Center
Wed 10:00:55 PM 29.8086 -95.8019 281° West 368 423 19,100 2,262 Climbing Houston Center
Wed 10:01:56 PM 29.8114 -95.9264 272° West 388 447 21,400 2,311 Climbing Houston Center
Wed 10:02:57 PM 29.8169 -96.0739 273° West 397 457 23,800 2,115 Climbing Houston Center
Wed 10:03:58 PM 29.8206 -96.2058 272° West 410 472 25,700 1,672 Climbing Houston Center
Wed 10:04:59 PM 29.8242 -96.3397 272° West 418 481 27,200 1,574 Climbing Houston Center
Wed 10:06:00 PM 29.8283 -96.4778 272° West 430 495 28,900 1,967 Climbing Houston Center
Wed 10:07:01 PM 29.8317 -96.6144 272° West 430 495 31,200 1,820 Climbing Houston Center
Wed 10:08:02 PM 29.8356 -96.7439 272° West 412 474 32,600 1,279 Climbing Houston Center
Wed 10:09:03 PM 29.8397 -96.8789 272° West 420 483 33,800 1,180 Climbing Houston Center
Wed 10:10:04 PM 29.8436 -97.0392 272° West 421 484 35,000 590 Climbing Houston Center
Wed 10:11:05 PM 29.8456 -97.1744 271° West 423 487 35,000 443 Level Houston Center
Wed 10:12:06 PM 29.8381 -97.3094 266° West 426 490 35,900 492 Climbing Houston Center
Wed 10:13:07 PM 29.8214 -97.4417 262° West 420 483 36,000 49 Climbing Houston Center
Wed 10:14:08 PM 29.8058 -97.5742 262° West 420 483 36,000  Level Houston Center
Wed 10:15:09 PM 29.7878 -97.7050 261° West 418 481 36,000  Level Houston Center
Wed 10:16:09 PM 29.7697 -97.8464 262° West 416 479 36,000  Level Houston Center
Wed 10:17:10 PM 29.7511 -97.9878 261° West 416 479 36,000  Level Houston Center
Wed 10:18:11 PM 29.7347 -98.1192 262° West 416 479 36,000  Level Houston Center
Wed 10:19:12 PM 29.7158 -98.2492 261° West 415 478 36,000  Level Houston Center
Wed 10:20:13 PM 29.6714 -98.3717 247° West 416 479 36,000  Level Houston Center
Wed 10:21:14 PM 29.6203 -98.5033 246° West 428 493 36,000  Level Houston Center
Wed 10:22:15 PM 29.5725 -98.6272 246° West 424 488 36,000  Level Houston Center
Wed 10:23:16 PM 29.5181 -98.7442 242° Southwest 419 482 36,000 -148 Level Houston Center
Wed 10:24:17 PM 29.4531 -98.8694 239° Southwest 426 490 35,700 -1,328 Descending Houston Center
Wed 10:25:18 PM 29.3944 -98.9889 241° Southwest 429 494 33,300 -1,820 Descending Houston Center
Wed 10:26:19 PM 29.3406 -99.1150 244° Southwest 443 510 32,000 -639 Descending Houston Center
Wed 10:27:20 PM 29.2872 -99.2450 245° Southwest 451 519 32,000  Level Houston Center
Wed 10:28:20 PM 29.2408 -99.3642 246° West 449 517 32,000  Level Houston Center
Wed 10:29:21 PM 29.1914 -99.4933 246° West 444 511 32,000 -49 Level Houston Center
Wed 10:30:22 PM 29.1378 -99.6214 244° Southwest 444 511 31,900  Descending Houston Center
Wed 10:31:23 PM 29.1019 -99.7533 253° West 440 506 32,000 49 Climbing Houston Center
Wed 10:32:24 PM 29.0803 -99.8897 260° West 436 502 32,000  Level Houston Center
Wed 10:33:25 PM 29.0664 -100.0256 263° West 433 498 32,000  Level Houston Center
Wed 10:34:26 PM 29.0678 -100.1897 271° West 431 496 32,000  Level Houston Center
Wed 10:35:27 PM 29.0853 -100.3253 278° West 426 490 32,000  Level Houston Center
Wed 10:36:28 PM 29.1211 -100.4553 288° West 428 493 32,000  Level Houston Center
Wed 10:37:29 PM 29.1578 -100.5856 288° West 432 497 32,000  Level Houston Center
Wed 10:38:30 PM 29.1947 -100.7172 288° West 435 501 32,000 -49 Level Houston Center
Wed 10:39:31 PM 29.2314 -100.8494 288° West 435 501 31,900  Descending Houston Center
Wed 10:40:32 PM 29.2719 -100.9789 290° West 432 497 32,000 49 Climbing Houston Center
Wed 10:41:33 PM 29.3203 -101.1039 294° West 429 494 32,000  Level Houston Center
Wed 10:42:34 PM 29.3756 -101.2283 297° West 438 504 32,000  Level Houston Center
Wed 10:43:35 PM 29.4314 -101.3544 297° West 443 510 32,000 -49 Level Houston Center
Wed 10:44:36 PM 29.4950 -101.4758 301° West 444 511 31,900  Descending Houston Center
Wed 10:45:37 PM 29.5619 -101.5944 303° West 443 510 32,000 78 Climbing Houston Center
Wed 10:45:53 PM 29.5833 -101.6319 303° West 446 513 32,000  Level Albuquerque Center
Wed 10:46:37 PM 29.6258 -101.7161 300° West 443 510 32,000  Level Houston Center
Wed 10:47:38 PM 29.6858 -101.8403 299° West 445 512 32,000  Level Houston Center
Wed 10:47:56 PM 29.7033 -101.8803 297° West 444 511 32,000  Level Albuquerque Center
Wed 10:48:57 PM 29.7625 -102.0056 299° West 446 513 32,000  Level Albuquerque Center
Wed 10:49:58 PM 29.8422 -102.1158 310° West 450 518 32,000  Level Albuquerque Center
Wed 10:51:00 PM 29.9381 -102.2486 310° West 449 517 32,000  Level Albuquerque Center
Wed 10:52:01 PM 30.0178 -102.3606 309° West 449 517 32,000  Level Albuquerque Center
Wed 10:53:02 PM 30.0975 -102.4728 309° West 451 519 32,000  Level Albuquerque Center
Wed 10:54:03 PM 30.1769 -102.5853 309° West 451 519 32,000  Level Albuquerque Center
Wed 10:55:05 PM 30.2533 -102.6956 309° West 443 510 32,000  Level Albuquerque Center
Wed 10:56:06 PM 30.3322 -102.8083 309° West 446 513 32,000  Level Albuquerque Center
Wed 10:57:07 PM 30.4103 -102.9169 310° West 442 509 32,000  Level Albuquerque Center
Wed 10:58:09 PM 30.4883 -103.0292 309° West 445 512 32,000  Level Albuquerque Center
Wed 10:59:10 PM 30.5647 -103.1403 309° West 441 507 32,000  Level Albuquerque Center
Wed 11:00:11 PM 30.6433 -103.2511 310° West 441 507 32,000  Level Albuquerque Center
Wed 11:01:13 PM 30.7203 -103.3619 309° West 441 507 32,000  Level Albuquerque Center
Wed 11:02:14 PM 30.8111 -103.4947 309° West 438 504 32,000  Level Albuquerque Center
Wed 11:03:15 PM 30.8864 -103.6053 308° West 436 502 32,000 -49 Level Albuquerque Center
Wed 11:04:16 PM 30.9619 -103.7161 309° West 436 502 31,900  Descending Albuquerque Center
Wed 11:05:18 PM 31.0128 -103.8267 298° West 438 504 32,000 49 Climbing Albuquerque Center
Wed 11:06:19 PM 31.0550 -103.9583 291° West 436 502 32,000  Level Albuquerque Center
Wed 11:07:21 PM 31.1058 -104.1183 290° West 439 505 32,000  Level Albuquerque Center
Wed 11:08:22 PM 31.1506 -104.2511 292° West 441 507 32,000  Level Albuquerque Center
Wed 11:09:23 PM 31.1939 -104.3839 291° West 441 507 32,000 -49 Level Albuquerque Center
Wed 11:10:25 PM 31.2375 -104.5153 291° West 438 504 31,900  Descending Albuquerque Center
Wed 11:11:26 PM 31.2783 -104.6419 291° West 425 489 32,000 49 Climbing Albuquerque Center
Wed 11:12:28 PM 31.3172 -104.7639 290° West 409 471 32,000  Level Albuquerque Center
Wed 11:13:29 PM 31.3572 -104.8861 291° West 406 467 32,000 -1,230 Level Albuquerque Center
Wed 11:14:30 PM 31.4039 -105.0319 291° West 403 464 29,500 -2,537 Descending Albuquerque Center
Wed 11:15:32 PM 31.4425 -105.1539 290° West 402 463 26,800 -2,585 Descending Albuquerque Center
Wed 11:16:33 PM 31.4814 -105.2747 291° West 399 459 24,200 -2,622 Descending Albuquerque Center
Wed 11:17:31 PM 31.5164 -105.4039 288° West 392 451 21,600 -2,542 Descending Albuquerque Center
Wed 11:18:31 PM 31.5544 -105.5139 292° West 364 419 19,200 -2,380 Descending Albuquerque Center
Wed 11:19:32 PM 31.5872 -105.6203 290° West 348 400 16,800 -2,361 Descending Albuquerque Center
Wed 11:20:33 PM 31.6206 -105.7292 290° West 349 402 14,400 -2,331 Descending Albuquerque Center
Wed 11:21:33 PM 31.6547 -105.8328 291° West 341 392 12,100 -2,083 Descending Albuquerque Center
Wed 11:22:34 PM 31.6861 -105.9322 290° West 326 375 10,200 -1,587 Descending Albuquerque Center
Wed 11:23:34 PM 31.7139 -106.0250 289° West 276 318 8,900 -1,537 Descending Albuquerque Center
Wed 11:24:35 PM 31.7425 -106.1103 292° West 272 313 7,100 -1,574 Descending Albuquerque Center
Wed 11:25:36 PM 31.7661 -106.1919 289° West 265 305 5,700 -1,043 Descending Albuquerque Center
Wed 11:26:30 PM 31.7872 -106.2617 290° West 246 283 5,100 -500 Descending Albuquerque Center
Wed 11:26:48 PM 31.7911 -106.2689 302° West 239 275 5,100 -295 Level Albuquerque Center
Wed 11:27:31 PM 31.7981 -106.3089 282° West 129 148 4,800 -387 Descending Albuquerque Center
Wed 11:27:50 PM 31.7983 -106.3144 273° West 143 165 4,700 -689 Descending Albuquerque Center
Wed 11:28:32 PM 31.7997 -106.3533 272° West 119 137 4,100 -787 Descending Albuquerque Center
Wed 11:28:51 PM 31.8014 -106.3658 279° West 132 152 3,900 -632 Descending Albuquerque Center
Wed 11:30:00 PM 31.8000 -106.3667 270° West  Level FlightAware Approximate
Wed 11:37:00 PM 31.8072 -106.3764 270° West  Level Estimated
Wed 11:38:00 PM 31.8072 -106.3764 270° West  Level Estimated
Wed 11:39:00 PM 31.8072 -106.3764 270° West  Level Estimated
Wed 11:40:00 PM 31.8072 -106.3764 270° West  Level Estimated

Login

Don't have an account? Register now (free) for customized features, flight alerts, and more!